createdAt,value
2023-05-13T00:00:45.123Z,74
2023-05-13T00:01:52.120Z,74
2023-05-13T00:03:04.361Z,75
2023-05-13T00:04:14.193Z,75
2023-05-13T00:05:21.088Z,75
2023-05-13T00:06:30.802Z,75
2023-05-13T00:07:37.752Z,75
2023-05-13T00:08:44.771Z,75
2023-05-13T00:09:51.784Z,75
2023-05-13T00:10:59.472Z,75
2023-05-13T00:12:06.472Z,75
2023-05-13T00:13:13.399Z,75
2023-05-13T00:14:23.342Z,75
2023-05-13T00:15:30.408Z,75
2023-05-13T00:16:37.297Z,75
2023-05-13T00:17:49.818Z,76
2023-05-13T00:18:56.819Z,76
2023-05-13T00:20:03.661Z,76
2023-05-13T00:21:15.905Z,76
2023-05-13T00:22:32.037Z,76
2023-05-13T00:23:39.037Z,76
2023-05-13T00:24:51.215Z,76
2023-05-13T00:25:59.348Z,76
2023-05-13T00:27:11.150Z,76
2023-05-13T00:28:18.249Z,76
2023-05-13T00:29:25.184Z,76
2023-05-13T00:30:32.549Z,76
2023-05-13T00:31:39.603Z,76
2023-05-13T00:33:04.391Z,76
2023-05-13T00:34:14.184Z,76
2023-05-13T00:35:24.122Z,76
2023-05-13T00:36:31.064Z,76
2023-05-13T00:37:41.071Z,76
2023-05-13T00:38:50.703Z,77
2023-05-13T00:39:57.914Z,77
2023-05-13T00:41:05.236Z,77
2023-05-13T00:42:15.340Z,77
2023-05-13T00:43:22.389Z,77
2023-05-13T00:44:30.065Z,77
2023-05-13T00:45:37.142Z,77
2023-05-13T00:46:44.077Z,77
2023-05-13T00:47:51.368Z,77
2023-05-13T00:48:58.618Z,77
2023-05-13T00:50:06.137Z,77
2023-05-13T00:51:13.739Z,77
2023-05-13T00:52:21.686Z,77
2023-05-13T00:53:29.208Z,77
2023-05-13T00:54:36.390Z,77
2023-05-13T00:55:43.377Z,77
2023-05-13T00:56:53.313Z,77
2023-05-13T00:58:00.348Z,78
2023-05-13T00:59:07.294Z,78
2023-05-13T01:00:14.255Z,77
2023-05-13T01:01:29.388Z,78
2023-05-13T01:02:47.287Z,78
2023-05-13T01:03:54.252Z,78
2023-05-13T01:05:14.428Z,78
2023-05-13T01:06:26.700Z,78
2023-05-13T01:07:39.805Z,78
2023-05-13T01:08:56.874Z,78
2023-05-13T01:10:06.853Z,78
2023-05-13T01:11:18.855Z,78
2023-05-13T01:12:28.595Z,78
2023-05-13T01:13:43.738Z,78
2023-05-13T01:14:52.978Z,79
2023-05-13T01:16:07.195Z,79
2023-05-13T01:17:27.414Z,79
2023-05-13T01:18:40.587Z,79
2023-05-13T01:19:50.032Z,79
2023-05-13T01:20:57.926Z,79
2023-05-13T01:22:07.047Z,79
2023-05-13T01:23:17.025Z,79
2023-05-13T01:24:26.160Z,79
2023-05-13T01:25:46.911Z,79
2023-05-13T01:27:17.197Z,79
2023-05-13T01:28:24.888Z,79
2023-05-13T01:29:31.970Z,80
2023-05-13T01:30:39.694Z,80
2023-05-13T01:31:46.706Z,80
2023-05-13T01:32:53.626Z,80
2023-05-13T01:34:03.496Z,80
2023-05-13T01:35:10.478Z,80
2023-05-13T01:36:18.069Z,80
2023-05-13T01:37:36.105Z,80
2023-05-13T01:38:43.347Z,80
2023-05-13T01:39:50.261Z,80
2023-05-13T01:40:57.388Z,80
2023-05-13T01:42:04.553Z,80
2023-05-13T01:43:11.459Z,80
2023-05-13T01:44:18.490Z,80
2023-05-13T01:45:36.787Z,80
2023-05-13T01:46:47.125Z,80
2023-05-13T01:47:56.746Z,79
2023-05-13T01:49:04.220Z,79
2023-05-13T01:50:11.141Z,79
2023-05-13T01:51:18.074Z,79
2023-05-13T01:52:25.696Z,79
2023-05-13T01:53:32.921Z,79
2023-05-13T01:54:46.816Z,79
2023-05-13T01:55:55.741Z,79
2023-05-13T01:57:02.768Z,79
2023-05-13T01:58:12.598Z,79
2023-05-13T01:59:22.205Z,79
2023-05-13T02:00:29.250Z,79
2023-05-13T02:01:39.403Z,79
2023-05-13T02:02:46.926Z,79
2023-05-13T02:03:54.038Z,80
2023-05-13T02:05:00.800Z,80
2023-05-13T02:06:07.782Z,80
2023-05-13T02:07:15.360Z,80
2023-05-13T02:08:25.516Z,80
2023-05-13T02:09:32.572Z,80
2023-05-13T02:10:42.652Z,80
2023-05-13T02:11:50.207Z,80
2023-05-13T02:12:57.109Z,80
2023-05-13T02:14:04.329Z,80
2023-05-13T02:15:11.272Z,80
2023-05-13T02:16:18.464Z,80
2023-05-13T02:17:25.467Z,80
2023-05-13T02:18:32.378Z,80
2023-05-13T02:19:42.284Z,80
2023-05-13T02:20:52.351Z,80
2023-05-13T02:22:06.039Z,80
2023-05-13T02:23:12.980Z,80
2023-05-13T02:24:20.054Z,80
2023-05-13T02:25:26.972Z,80
2023-05-13T02:26:35.435Z,80
2023-05-13T02:27:44.925Z,80
2023-05-13T02:28:52.693Z,80
2023-05-13T02:30:03.921Z,80
2023-05-13T02:31:17.026Z,80
2023-05-13T02:32:36.852Z,80
2023-05-13T02:33:44.642Z,80
2023-05-13T02:34:51.667Z,80
2023-05-13T02:35:59.601Z,80
2023-05-13T02:37:06.850Z,79
2023-05-13T02:38:13.869Z,79
2023-05-13T02:39:28.681Z,79
2023-05-13T02:40:40.200Z,79
2023-05-13T02:41:47.285Z,79
2023-05-13T02:43:03.782Z,79
2023-05-13T02:44:18.866Z,79
2023-05-13T02:45:35.177Z,79
2023-05-13T02:46:46.579Z,79
2023-05-13T02:48:02.183Z,79
2023-05-13T02:49:09.119Z,80
2023-05-13T02:50:18.783Z,80
2023-05-13T02:51:33.884Z,80
2023-05-13T02:52:43.567Z,80
2023-05-13T02:53:53.577Z,80
2023-05-13T02:55:11.013Z,80
2023-05-13T02:56:18.031Z,80
2023-05-13T02:57:25.493Z,80
2023-05-13T02:58:39.604Z,80
2023-05-13T02:59:46.681Z,79
2023-05-13T03:00:53.787Z,79
2023-05-13T03:02:07.031Z,79
2023-05-13T03:03:18.792Z,79
2023-05-13T03:04:28.911Z,79
2023-05-13T03:05:38.689Z,79
2023-05-13T03:06:45.675Z,79
2023-05-13T03:07:52.696Z,80
2023-05-13T03:08:59.763Z,79
2023-05-13T03:10:08.626Z,79
2023-05-13T03:11:35.296Z,80
2023-05-13T03:12:42.586Z,80
2023-05-13T03:13:50.168Z,80
2023-05-13T03:15:10.321Z,79
2023-05-13T03:16:21.096Z,80
2023-05-13T03:17:28.290Z,80
2023-05-13T03:18:52.133Z,80
2023-05-13T03:20:06.442Z,80
2023-05-13T03:21:13.785Z,80
2023-05-13T03:22:23.862Z,80
2023-05-13T03:23:31.672Z,80
2023-05-13T03:24:39.321Z,80
2023-05-13T03:25:57.318Z,80
2023-05-13T03:27:14.111Z,80
2023-05-13T03:28:31.173Z,79
2023-05-13T03:29:50.877Z,79
2023-05-13T03:31:01.388Z,80
2023-05-13T03:32:08.452Z,79
2023-05-13T03:33:21.709Z,79
2023-05-13T03:34:29.041Z,80
2023-05-13T03:35:36.611Z,80
2023-05-13T03:36:43.589Z,80
2023-05-13T03:37:53.520Z,80
2023-05-13T03:39:00.925Z,80
2023-05-13T03:40:08.024Z,80
2023-05-13T03:41:15.190Z,80
2023-05-13T03:42:22.317Z,80
2023-05-13T03:43:29.380Z,79
2023-05-13T03:44:36.732Z,79
2023-05-13T03:45:43.797Z,80
2023-05-13T03:46:53.983Z,80
2023-05-13T03:48:01.180Z,80
2023-05-13T03:49:10.909Z,80
2023-05-13T03:50:17.985Z,80
2023-05-13T03:51:25.878Z,80
2023-05-13T03:52:32.824Z,80
2023-05-13T03:53:42.028Z,80
2023-05-13T03:54:49.125Z,80
2023-05-13T03:56:06.981Z,80
2023-05-13T03:57:14.450Z,80
2023-05-13T03:58:38.553Z,80
2023-05-13T03:59:48.398Z,80
2023-05-13T04:00:55.920Z,80
2023-05-13T04:02:03.490Z,80
2023-05-13T04:03:10.608Z,80
2023-05-13T04:04:21.153Z,80
2023-05-13T04:05:28.389Z,80
2023-05-13T04:06:42.536Z,80
2023-05-13T04:07:58.024Z,80
2023-05-13T04:09:04.992Z,80
2023-05-13T04:10:14.692Z,80
2023-05-13T04:11:22.241Z,80
2023-05-13T04:12:29.356Z,81
2023-05-13T04:13:36.791Z,81
2023-05-13T04:14:44.112Z,81
2023-05-13T04:16:00.304Z,81
2023-05-13T04:17:18.948Z,81
2023-05-13T04:18:33.631Z,81
2023-05-13T04:19:45.959Z,81
2023-05-13T04:20:52.921Z,81
2023-05-13T04:22:00.074Z,81
2023-05-13T04:23:13.465Z,81
2023-05-13T04:24:20.457Z,81
2023-05-13T04:25:42.945Z,81
2023-05-13T04:26:53.304Z,81
2023-05-13T04:28:09.958Z,80
2023-05-13T04:29:27.728Z,80
2023-05-13T04:30:49.900Z,80
2023-05-13T04:31:57.733Z,80
2023-05-13T04:33:22.571Z,80
2023-05-13T04:34:51.370Z,80
2023-05-13T04:36:10.240Z,80
2023-05-13T04:37:19.695Z,80
2023-05-13T04:38:26.675Z,80
2023-05-13T04:39:34.465Z,80
2023-05-13T04:40:56.858Z,81
2023-05-13T04:42:11.014Z,80
2023-05-13T04:43:18.342Z,80
2023-05-13T04:44:36.774Z,80
2023-05-13T04:45:43.822Z,80
2023-05-13T04:46:56.818Z,80
2023-05-13T04:48:14.261Z,80
2023-05-13T04:49:21.364Z,80
2023-05-13T04:50:28.615Z,81
2023-05-13T04:51:35.670Z,81
2023-05-13T04:52:49.320Z,80
2023-05-13T04:53:59.327Z,80
2023-05-13T04:55:06.406Z,80
2023-05-13T04:56:18.164Z,80
2023-05-13T04:57:29.147Z,80
2023-05-13T04:58:36.153Z,80
2023-05-13T04:59:43.265Z,80
2023-05-13T05:01:08.601Z,80
2023-05-13T05:02:15.574Z,81
2023-05-13T05:03:22.981Z,81
2023-05-13T05:04:35.062Z,81
2023-05-13T05:05:42.533Z,81
2023-05-13T05:06:52.268Z,81
2023-05-13T05:07:59.429Z,81
2023-05-13T05:09:06.511Z,81
2023-05-13T05:10:14.312Z,81
2023-05-13T05:11:21.363Z,81
2023-05-13T05:12:29.053Z,81
2023-05-13T05:13:36.097Z,81
2023-05-13T05:14:43.189Z,81
2023-05-13T05:15:50.254Z,81
2023-05-13T05:16:57.188Z,81
2023-05-13T05:18:04.308Z,81
2023-05-13T05:19:11.316Z,81
2023-05-13T05:20:21.443Z,81
2023-05-13T05:21:28.435Z,80
2023-05-13T05:22:35.527Z,80
2023-05-13T05:23:42.545Z,81
2023-05-13T05:24:55.728Z,81
2023-05-13T05:26:10.906Z,80
2023-05-13T05:27:09.889Z,81
2023-05-13T05:28:19.780Z,81
2023-05-13T05:29:27.239Z,81
2023-05-13T05:30:34.248Z,81
2023-05-13T05:31:41.415Z,81
2023-05-13T05:33:04.028Z,81
2023-05-13T05:34:21.111Z,81
2023-05-13T05:35:35.049Z,81
2023-05-13T05:36:52.891Z,81
2023-05-13T05:38:24.525Z,81
2023-05-13T05:39:44.561Z,81
2023-05-13T05:41:02.227Z,81
2023-05-13T05:42:11.281Z,81
2023-05-13T05:43:18.255Z,81
2023-05-13T05:44:25.541Z,81
2023-05-13T05:45:35.413Z,81
2023-05-13T05:48:03.261Z,81
2023-05-13T05:49:16.494Z,81
2023-05-13T05:50:26.711Z,81
2023-05-13T05:51:40.631Z,81
2023-05-13T05:53:01.310Z,81
2023-05-13T05:54:08.909Z,81
2023-05-13T05:55:17.905Z,81
2023-05-13T05:56:44.125Z,81
2023-05-13T05:57:56.743Z,81
2023-05-13T05:59:04.379Z,81
2023-05-13T06:00:22.867Z,81
2023-05-13T06:01:30.109Z,81
2023-05-13T06:02:37.234Z,82
2023-05-13T06:03:44.134Z,82
2023-05-13T06:04:51.231Z,82
2023-05-13T06:06:03.102Z,81
2023-05-13T06:07:10.413Z,81
2023-05-13T06:08:18.005Z,81
2023-05-13T06:09:27.971Z,81
2023-05-13T06:10:56.266Z,81
2023-05-13T06:12:16.218Z,81
2023-05-13T06:13:23.834Z,81
2023-05-13T06:14:33.910Z,80
2023-05-13T06:15:46.308Z,80
2023-05-13T06:16:54.331Z,80
2023-05-13T06:18:00.646Z,79
2023-05-13T06:19:07.790Z,80
2023-05-13T06:20:17.031Z,80
2023-05-13T06:21:27.080Z,79
2023-05-13T06:22:45.220Z,79
2023-05-13T06:23:52.960Z,79
2023-05-13T06:25:00.080Z,78
2023-05-13T06:26:07.218Z,78
2023-05-13T06:27:16.938Z,78
2023-05-13T06:28:24.590Z,78
2023-05-13T06:29:34.319Z,78
2023-05-13T06:30:44.787Z,78
2023-05-13T06:31:52.331Z,78
2023-05-13T06:33:01.890Z,77
2023-05-13T06:34:20.747Z,77
2023-05-13T06:35:28.112Z,76
2023-05-13T06:36:35.981Z,76
2023-05-13T06:37:44.518Z,76
2023-05-13T06:38:54.667Z,77
2023-05-13T06:40:01.781Z,77
2023-05-13T06:41:11.823Z,76
2023-05-13T06:42:32.621Z,75
2023-05-13T06:43:42.611Z,75
2023-05-13T06:44:59.618Z,75
2023-05-13T06:46:15.728Z,75
2023-05-13T06:47:25.538Z,75
2023-05-13T06:48:33.468Z,74
2023-05-13T06:49:40.874Z,74
2023-05-13T06:50:47.939Z,73
2023-05-13T06:51:55.013Z,73
2023-05-13T06:53:02.082Z,74
2023-05-13T06:54:10.044Z,73
2023-05-13T06:55:33.794Z,73
2023-05-13T06:56:51.676Z,72
2023-05-13T06:58:01.694Z,72
2023-05-13T06:59:08.876Z,71
2023-05-13T07:00:15.854Z,71
2023-05-13T07:01:23.088Z,71
2023-05-13T07:02:38.504Z,71
2023-05-13T07:03:50.518Z,71
2023-05-13T07:04:57.935Z,71
2023-05-13T07:06:05.082Z,70
2023-05-13T07:07:14.960Z,70
2023-05-13T07:08:24.938Z,70
2023-05-13T07:09:32.972Z,69
2023-05-13T07:10:44.890Z,68
2023-05-13T07:12:07.628Z,69
2023-05-13T07:13:15.368Z,68
2023-05-13T07:14:22.775Z,67
2023-05-13T07:15:29.798Z,68
2023-05-13T07:16:50.707Z,67
2023-05-13T07:17:57.954Z,68
2023-05-13T07:19:06.042Z,66
2023-05-13T07:20:18.184Z,66
2023-05-13T07:21:25.810Z,66
2023-05-13T07:22:33.793Z,66
2023-05-13T07:23:42.020Z,65
2023-05-13T07:24:48.190Z,65
2023-05-13T07:25:55.198Z,64
2023-05-13T07:27:13.943Z,61
2023-05-13T07:28:21.323Z,59
2023-05-13T07:29:41.449Z,59
2023-05-13T07:30:48.686Z,58
2023-05-13T07:32:03.117Z,58
2023-05-13T07:33:20.256Z,58
2023-05-13T07:34:30.633Z,57
2023-05-13T07:36:03.468Z,58
2023-05-13T07:37:19.889Z,58
2023-05-13T07:38:27.405Z,58
2023-05-13T07:39:44.453Z,57
2023-05-13T07:40:58.431Z,57
2023-05-13T07:42:10.302Z,57
2023-05-13T07:43:39.443Z,57
2023-05-13T07:44:49.152Z,57
2023-05-13T07:46:10.174Z,56
2023-05-13T07:47:19.805Z,56
2023-05-13T07:48:38.908Z,53
2023-05-13T07:49:50.193Z,53
2023-05-13T07:51:06.026Z,53
2023-05-13T07:52:18.368Z,54
2023-05-13T07:53:26.001Z,53
2023-05-13T07:54:33.032Z,53
2023-05-13T07:57:15.669Z,55
2023-05-13T07:58:28.629Z,55
2023-05-13T07:59:39.283Z,56
2023-05-13T08:00:52.604Z,56
2023-05-13T08:02:02.576Z,54
2023-05-13T08:03:24.090Z,54
2023-05-13T08:04:47.083Z,53
2023-05-13T08:05:59.469Z,51
2023-05-13T08:07:06.833Z,49
2023-05-13T08:08:14.455Z,47
2023-05-13T08:09:21.766Z,46
2023-05-13T08:10:30.806Z,46
2023-05-13T08:11:39.202Z,46
2023-05-13T08:12:51.218Z,46
2023-05-13T08:14:05.421Z,46
2023-05-13T08:15:13.163Z,46
2023-05-13T08:16:22.596Z,46
2023-05-13T08:17:33.162Z,46
2023-05-13T08:18:42.264Z,45
2023-05-13T08:19:59.982Z,45
2023-05-13T08:21:10.015Z,43
2023-05-13T08:22:19.456Z,43
2023-05-13T08:23:45.638Z,43
2023-05-13T08:24:57.283Z,43
2023-05-13T08:26:15.105Z,44
2023-05-13T08:27:36.951Z,44
2023-05-13T08:28:48.008Z,44
2023-05-13T08:30:01.565Z,42
2023-05-13T08:31:09.518Z,44
2023-05-13T08:32:19.676Z,44
2023-05-13T08:33:29.407Z,45
2023-05-13T08:34:36.473Z,45
2023-05-13T08:35:53.923Z,44
2023-05-13T08:37:01.375Z,43
2023-05-13T08:38:08.412Z,43
2023-05-13T08:39:15.735Z,43
2023-05-13T08:40:23.068Z,43
2023-05-13T08:41:34.044Z,43
2023-05-13T08:42:41.195Z,42
2023-05-13T08:43:48.145Z,42
2023-05-13T08:44:55.192Z,42
2023-05-13T08:46:08.289Z,43
2023-05-13T08:47:21.083Z,43
2023-05-13T08:48:31.349Z,44
2023-05-13T08:49:38.602Z,43
2023-05-13T08:50:45.653Z,43
2023-05-13T08:51:52.694Z,43
2023-05-13T08:52:59.805Z,43
2023-05-13T08:54:07.734Z,43
2023-05-13T08:55:15.370Z,43
2023-05-13T08:56:24.542Z,42
2023-05-13T08:57:35.781Z,40
2023-05-13T08:58:54.536Z,41
2023-05-13T09:00:02.412Z,41
2023-05-13T09:01:09.825Z,41
2023-05-13T09:02:30.309Z,42
2023-05-13T09:03:37.685Z,41
2023-05-13T09:04:48.511Z,40
2023-05-13T09:05:55.473Z,39
2023-05-13T09:07:18.712Z,39
2023-05-13T09:08:37.889Z,40
2023-05-13T09:09:47.024Z,40
2023-05-13T09:10:54.804Z,40
2023-05-13T09:12:07.329Z,40
2023-05-13T09:13:18.479Z,40
2023-05-13T09:14:29.027Z,40
2023-05-13T09:15:54.653Z,39
2023-05-13T09:17:01.608Z,39
2023-05-13T09:18:18.961Z,39
2023-05-13T09:19:25.644Z,40
2023-05-13T09:20:48.681Z,41
2023-05-13T09:21:56.530Z,40
2023-05-13T09:23:11.691Z,40
2023-05-13T09:24:21.534Z,40
2023-05-13T09:25:29.011Z,41
2023-05-13T09:26:37.296Z,41
2023-05-13T09:27:44.202Z,41
2023-05-13T09:29:04.181Z,41
2023-05-13T09:30:20.527Z,42
2023-05-13T09:31:27.570Z,41
2023-05-13T09:32:37.589Z,41
2023-05-13T09:33:56.383Z,40
2023-05-13T09:35:17.803Z,41
2023-05-13T09:36:34.003Z,41
2023-05-13T09:37:44.606Z,41
2023-05-13T09:39:01.997Z,42
2023-05-13T09:40:11.052Z,41
2023-05-13T09:41:26.610Z,41
2023-05-13T09:42:41.139Z,41
2023-05-13T09:43:59.982Z,41
2023-05-13T09:45:15.397Z,41
2023-05-13T09:46:35.724Z,41
2023-05-13T09:47:42.684Z,41
2023-05-13T09:48:50.005Z,41
2023-05-13T09:50:02.296Z,42
2023-05-13T09:51:12.886Z,42
2023-05-13T09:52:28.964Z,41
2023-05-13T09:53:46.051Z,41
2023-05-13T09:54:53.435Z,41
2023-05-13T09:56:07.147Z,41
2023-05-13T09:57:14.284Z,41
2023-05-13T09:58:22.149Z,41
2023-05-13T09:59:31.714Z,42
2023-05-13T10:00:39.563Z,41
2023-05-13T10:01:51.274Z,41
2023-05-13T10:03:02.370Z,42
2023-05-13T10:04:12.840Z,42
2023-05-13T10:05:20.750Z,42
2023-05-13T10:06:30.501Z,41
2023-05-13T10:07:40.518Z,41
2023-05-13T10:09:05.312Z,40
2023-05-13T10:10:23.829Z,40
2023-05-13T10:11:36.530Z,40
2023-05-13T10:12:48.654Z,40
2023-05-13T10:13:55.766Z,41
2023-05-13T10:15:02.670Z,40
2023-05-13T10:16:11.443Z,40
2023-05-13T10:17:19.378Z,39
2023-05-13T10:18:29.567Z,40
2023-05-13T10:19:36.523Z,40
2023-05-13T10:20:44.573Z,40
2023-05-13T10:22:00.205Z,40
2023-05-13T10:23:14.101Z,40
2023-05-13T10:24:26.042Z,41
2023-05-13T10:25:33.381Z,41
2023-05-13T10:26:50.086Z,40
2023-05-13T10:27:57.384Z,40
2023-05-13T10:29:04.409Z,39
2023-05-13T10:30:17.305Z,39
2023-05-13T10:31:35.498Z,39
2023-05-13T10:32:42.673Z,40
2023-05-13T10:33:49.528Z,41
2023-05-13T10:34:56.655Z,39
2023-05-13T10:36:13.729Z,39
2023-05-13T10:37:30.799Z,39
2023-05-13T10:38:47.885Z,39
2023-05-13T10:40:05.387Z,39
2023-05-13T10:41:19.959Z,39
2023-05-13T10:42:40.425Z,39
2023-05-13T10:43:47.413Z,38
2023-05-13T10:44:54.449Z,39
2023-05-13T10:46:04.952Z,39
2023-05-13T10:47:11.925Z,39
2023-05-13T10:48:18.967Z,39
2023-05-13T10:49:29.501Z,39
2023-05-13T10:50:36.507Z,39
2023-05-13T10:51:43.451Z,39
2023-05-13T10:52:54.564Z,39
2023-05-13T10:54:02.269Z,39
2023-05-13T10:55:10.478Z,40
2023-05-13T10:56:20.077Z,39
2023-05-13T10:57:27.581Z,39
2023-05-13T10:58:42.192Z,40
2023-05-13T10:59:50.343Z,40
2023-05-13T11:01:01.186Z,40
2023-05-13T11:02:22.805Z,39
2023-05-13T11:03:29.834Z,38
2023-05-13T11:04:36.732Z,38
2023-05-13T11:05:43.746Z,38
2023-05-13T11:06:53.658Z,38
2023-05-13T11:08:00.801Z,38
2023-05-13T11:09:08.044Z,38
2023-05-13T11:10:15.260Z,38
2023-05-13T11:11:27.254Z,38
2023-05-13T11:12:39.599Z,39
2023-05-13T11:13:50.732Z,39
2023-05-13T11:14:59.959Z,38
2023-05-13T11:16:07.902Z,38
2023-05-13T11:17:15.080Z,38
2023-05-13T11:18:25.076Z,38
2023-05-13T11:19:35.534Z,38
2023-05-13T11:20:51.986Z,38
2023-05-13T11:21:51.585Z,38
2023-05-13T11:23:03.814Z,38
2023-05-13T11:24:10.784Z,38
2023-05-13T11:25:17.848Z,38
2023-05-13T11:26:27.430Z,39
2023-05-13T11:27:39.931Z,38
2023-05-13T11:28:48.133Z,39
2023-05-13T11:29:58.306Z,39
2023-05-13T11:31:05.313Z,40
2023-05-13T11:32:19.932Z,40
2023-05-13T11:33:37.731Z,39
2023-05-13T11:34:55.050Z,39
2023-05-13T11:36:02.116Z,38
2023-05-13T11:37:11.429Z,39
2023-05-13T11:38:22.399Z,39
2023-05-13T11:39:31.698Z,40
2023-05-13T11:40:39.703Z,40
2023-05-13T11:41:47.537Z,39
2023-05-13T11:42:54.722Z,39
2023-05-13T11:44:02.022Z,39
2023-05-13T11:45:15.103Z,39
2023-05-13T11:46:25.530Z,39
2023-05-13T11:47:32.522Z,39
2023-05-13T11:48:43.061Z,39
2023-05-13T11:49:50.061Z,39
2023-05-13T11:50:57.269Z,39
2023-05-13T11:52:04.214Z,39
2023-05-13T11:53:13.744Z,39
2023-05-13T11:54:26.524Z,40
2023-05-13T11:55:33.438Z,40
2023-05-13T11:56:40.432Z,40
2023-05-13T11:57:49.484Z,40
2023-05-13T11:58:56.491Z,40
2023-05-13T12:00:13.565Z,40
2023-05-13T12:01:20.718Z,40
2023-05-13T12:02:27.830Z,40
2023-05-13T12:03:34.966Z,40
2023-05-13T12:04:42.232Z,40
2023-05-13T12:05:49.238Z,40
2023-05-13T12:06:56.207Z,40
2023-05-13T12:08:03.540Z,39
2023-05-13T12:09:13.316Z,40
2023-05-13T12:10:20.374Z,40
2023-05-13T12:11:30.968Z,41
2023-05-13T12:12:38.003Z,40
2023-05-13T12:13:48.173Z,41
2023-05-13T12:14:55.275Z,40
2023-05-13T12:16:02.483Z,40
2023-05-13T12:17:09.565Z,40
2023-05-13T12:18:20.645Z,40
2023-05-13T12:19:29.760Z,40
2023-05-13T12:20:37.100Z,40
2023-05-13T12:21:44.119Z,41
2023-05-13T12:22:51.474Z,40
2023-05-13T12:23:58.823Z,40
2023-05-13T12:25:05.874Z,40
2023-05-13T12:26:28.038Z,39
2023-05-13T12:27:35.889Z,40
2023-05-13T12:28:43.083Z,40
2023-05-13T12:29:53.954Z,40
2023-05-13T12:31:01.268Z,40
2023-05-13T12:32:08.200Z,40
2023-05-13T12:33:15.216Z,40
2023-05-13T12:34:27.402Z,40
2023-05-13T12:35:37.042Z,40
2023-05-13T12:36:44.212Z,41
2023-05-13T12:37:51.333Z,41
2023-05-13T12:39:01.517Z,41
2023-05-13T12:40:08.589Z,39
2023-05-13T12:41:15.770Z,40
2023-05-13T12:42:22.788Z,40
2023-05-13T12:43:29.933Z,40
2023-05-13T12:44:41.831Z,40
2023-05-13T12:45:48.852Z,40
2023-05-13T12:46:55.932Z,39
2023-05-13T12:48:03.901Z,40
2023-05-13T12:49:11.067Z,39
2023-05-13T12:50:18.511Z,38
2023-05-13T12:51:25.614Z,37
2023-05-13T12:52:36.114Z,38
2023-05-13T12:53:46.118Z,38
2023-05-13T12:54:53.208Z,38
2023-05-13T12:56:00.292Z,38
2023-05-13T12:57:07.847Z,38
2023-05-13T12:58:14.932Z,38
2023-05-13T12:59:23.872Z,39
2023-05-13T13:00:33.461Z,38
2023-05-13T13:01:42.196Z,38
2023-05-13T13:02:49.229Z,38
2023-05-13T13:03:58.868Z,39
2023-05-13T13:05:05.722Z,38
2023-05-13T13:06:14.274Z,39
2023-05-13T13:07:21.361Z,39
2023-05-13T13:08:29.955Z,38
2023-05-13T13:09:35.721Z,38
2023-05-13T13:10:42.911Z,39
2023-05-13T13:11:50.018Z,38
2023-05-13T13:12:57.195Z,38
2023-05-13T13:14:07.456Z,39
2023-05-13T13:15:14.647Z,39
2023-05-13T13:16:21.891Z,39
2023-05-13T13:17:28.900Z,39
2023-05-13T13:18:36.973Z,39
2023-05-13T13:19:43.949Z,39
2023-05-13T13:20:56.774Z,39
2023-05-13T13:22:04.106Z,39
2023-05-13T13:23:22.001Z,39
2023-05-13T13:24:29.057Z,39
2023-05-13T13:25:35.953Z,39
2023-05-13T13:26:43.022Z,39
2023-05-13T13:27:50.228Z,39
2023-05-13T13:28:57.264Z,39
2023-05-13T13:30:04.756Z,38
2023-05-13T13:31:11.942Z,38
2023-05-13T13:32:19.054Z,39
2023-05-13T13:33:26.138Z,40
2023-05-13T13:34:33.254Z,39
2023-05-13T13:35:41.665Z,39
2023-05-13T13:36:53.454Z,39
2023-05-13T13:38:00.498Z,39
2023-05-13T13:39:07.600Z,39
2023-05-13T13:40:14.730Z,39
2023-05-13T13:41:22.244Z,39
2023-05-13T13:42:43.083Z,38
2023-05-13T13:43:39.278Z,39
2023-05-13T13:44:46.331Z,39
2023-05-13T13:45:53.406Z,39
2023-05-13T13:47:00.352Z,39
2023-05-13T13:48:07.763Z,39
2023-05-13T13:49:23.012Z,39
2023-05-13T13:50:22.296Z,39
2023-05-13T13:51:29.192Z,38
2023-05-13T13:52:38.985Z,39
2023-05-13T13:53:46.601Z,38
2023-05-13T13:54:53.676Z,38
2023-05-13T13:56:00.778Z,38
2023-05-13T13:57:07.872Z,39
2023-05-13T13:58:15.693Z,39
2023-05-13T13:59:26.652Z,39
2023-05-13T14:00:33.738Z,39
2023-05-13T14:01:41.490Z,38
2023-05-13T14:02:48.910Z,38
2023-05-13T14:03:56.148Z,38
2023-05-13T14:05:12.987Z,38
2023-05-13T14:06:20.621Z,40
2023-05-13T14:07:27.817Z,40
2023-05-13T14:08:34.941Z,39
2023-05-13T14:09:42.044Z,40
2023-05-13T14:10:49.079Z,39
2023-05-13T14:11:56.108Z,39
2023-05-13T14:13:35.294Z,39
2023-05-13T14:14:42.261Z,39
2023-05-13T14:15:49.446Z,39
2023-05-13T14:16:56.448Z,38
2023-05-13T14:18:03.491Z,39
2023-05-13T14:19:10.614Z,38
2023-05-13T14:20:17.652Z,39
2023-05-13T14:21:28.416Z,39
2023-05-13T14:22:35.391Z,39
2023-05-13T14:23:42.467Z,40
2023-05-13T14:24:49.428Z,39
2023-05-13T14:25:56.467Z,39
2023-05-13T14:27:03.493Z,39
2023-05-13T14:28:10.554Z,39
2023-05-13T14:29:17.616Z,40
2023-05-13T14:30:24.778Z,40
2023-05-13T14:31:31.795Z,40
2023-05-13T14:32:38.668Z,40
2023-05-13T14:33:45.709Z,40
2023-05-13T14:34:52.739Z,40
2023-05-13T14:36:03.892Z,40
2023-05-13T14:37:11.061Z,40
2023-05-13T14:38:18.069Z,41
2023-05-13T14:39:25.129Z,41
2023-05-13T14:40:35.242Z,41
2023-05-13T14:41:42.295Z,41
2023-05-13T14:42:49.369Z,42
2023-05-13T14:43:56.300Z,41
2023-05-13T14:45:04.805Z,41
2023-05-13T14:46:11.956Z,40
2023-05-13T14:47:18.943Z,40
2023-05-13T14:48:25.981Z,41
2023-05-13T14:49:33.021Z,42
2023-05-13T14:50:41.801Z,41
2023-05-13T14:51:47.506Z,42
2023-05-13T14:52:54.490Z,41
2023-05-13T14:54:01.513Z,41
2023-05-13T14:55:12.875Z,42
2023-05-13T14:56:20.007Z,42
2023-05-13T14:57:27.053Z,42
2023-05-13T14:58:34.096Z,42
2023-05-13T14:59:41.117Z,42
2023-05-13T15:00:48.259Z,41
2023-05-13T15:01:55.442Z,41
2023-05-13T15:03:06.824Z,41
2023-05-13T15:04:13.896Z,41
2023-05-13T15:05:21.024Z,42
2023-05-13T15:06:28.007Z,42
2023-05-13T15:07:35.075Z,41
2023-05-13T15:08:42.114Z,41
2023-05-13T15:09:53.933Z,41
2023-05-13T15:11:01.035Z,42
2023-05-13T15:12:11.200Z,42
2023-05-13T15:13:18.282Z,41
2023-05-13T15:14:27.970Z,41
2023-05-13T15:15:35.114Z,42
2023-05-13T15:16:42.306Z,41
2023-05-13T15:17:49.424Z,42
2023-05-13T15:18:56.473Z,41
2023-05-13T15:20:05.298Z,42
2023-05-13T15:21:13.266Z,42
2023-05-13T15:22:20.312Z,41
2023-05-13T15:23:27.251Z,42
2023-05-13T15:24:37.327Z,42
2023-05-13T15:25:44.293Z,41
2023-05-13T15:26:51.443Z,41
2023-05-13T15:27:58.520Z,42
2023-05-13T15:29:05.535Z,41
2023-05-13T15:30:12.581Z,41
2023-05-13T15:31:19.629Z,41
2023-05-13T15:32:26.585Z,41
2023-05-13T15:33:33.684Z,41
2023-05-13T15:34:40.802Z,41
2023-05-13T15:35:50.606Z,41
2023-05-13T15:36:57.630Z,41
2023-05-13T15:38:04.611Z,41
2023-05-13T15:39:11.644Z,40
2023-05-13T15:40:21.170Z,41
2023-05-13T15:41:33.307Z,41
2023-05-13T15:42:40.320Z,41
2023-05-13T15:43:50.100Z,41
2023-05-13T15:44:58.180Z,41
2023-05-13T15:46:05.213Z,41
2023-05-13T15:47:12.414Z,40
2023-05-13T15:48:19.393Z,40
2023-05-13T15:49:26.343Z,40
2023-05-13T15:50:33.433Z,40
2023-05-13T15:51:45.379Z,41
2023-05-13T15:52:57.022Z,42
2023-05-13T15:54:09.233Z,41
2023-05-13T15:55:16.223Z,41
2023-05-13T15:56:23.162Z,41
2023-05-13T15:57:30.236Z,41
2023-05-13T15:58:37.261Z,41
2023-05-13T15:59:44.326Z,41
2023-05-13T16:00:56.858Z,41
2023-05-13T16:02:05.183Z,42
2023-05-13T16:03:11.989Z,42
2023-05-13T16:04:19.068Z,42
2023-05-13T16:05:25.984Z,42
2023-05-13T16:06:33.153Z,42
2023-05-13T16:07:48.029Z,43
2023-05-13T16:08:56.499Z,42
2023-05-13T16:10:02.863Z,43
2023-05-13T16:11:09.985Z,42
2023-05-13T16:12:16.940Z,42
2023-05-13T16:13:23.948Z,41
2023-05-13T16:14:30.903Z,42
2023-05-13T16:15:37.922Z,42
2023-05-13T16:16:45.051Z,42
2023-05-13T16:17:51.949Z,41
2023-05-13T16:18:58.972Z,42
2023-05-13T16:20:06.015Z,42
2023-05-13T16:21:17.584Z,42
2023-05-13T16:22:29.848Z,42
2023-05-13T16:23:36.861Z,42
2023-05-13T16:24:43.815Z,42
2023-05-13T16:25:50.881Z,43
2023-05-13T16:26:57.885Z,42
2023-05-13T16:28:04.893Z,42
2023-05-13T16:29:12.038Z,42
2023-05-13T16:30:19.091Z,43
2023-05-13T16:31:26.161Z,42
2023-05-13T16:32:33.188Z,42
2023-05-13T16:33:43.376Z,42
2023-05-13T16:34:50.384Z,42
2023-05-13T16:35:58.301Z,43
2023-05-13T16:37:05.317Z,42
2023-05-13T16:38:12.396Z,42
2023-05-13T16:39:19.455Z,42
2023-05-13T16:40:27.978Z,43
2023-05-13T16:41:39.527Z,42